sensor_id;sensor_type;location;lat;lon;timestamp;P1;durP1;ratioP1;P2;durP2;ratioP2
3054;SDS011;1537;52.018;8.542;2023-05-07T00:01:28;27.50;;;18.63;;
3054;SDS011;1537;52.018;8.542;2023-05-07T00:04:52;26.50;;;19.60;;
3054;SDS011;1537;52.018;8.542;2023-05-07T00:08:16;23.40;;;17.90;;
3054;SDS011;1537;52.018;8.542;2023-05-07T00:11:44;26.90;;;19.67;;
3054;SDS011;1537;52.018;8.542;2023-05-07T00:15:08;23.73;;;17.40;;
3054;SDS011;1537;52.018;8.542;2023-05-07T00:18:34;24.00;;;18.90;;
3054;SDS011;1537;52.018;8.542;2023-05-07T00:21:58;22.63;;;18.60;;
3054;SDS011;1537;52.018;8.542;2023-05-07T00:25:22;24.00;;;18.27;;
3054;SDS011;1537;52.018;8.542;2023-05-07T00:28:46;22.43;;;17.60;;
3054;SDS011;1537;52.018;8.542;2023-05-07T00:32:12;24.97;;;18.90;;
3054;SDS011;1537;52.018;8.542;2023-05-07T00:35:38;22.90;;;18.43;;
3054;SDS011;1537;52.018;8.542;2023-05-07T00:39:02;22.53;;;17.77;;
3054;SDS011;1537;52.018;8.542;2023-05-07T00:42:28;28.10;;;17.90;;
3054;SDS011;1537;52.018;8.542;2023-05-07T00:45:54;23.73;;;17.67;;
3054;SDS011;1537;52.018;8.542;2023-05-07T00:49:21;24.97;;;16.63;;
3054;SDS011;1537;52.018;8.542;2023-05-07T00:52:48;23.90;;;17.80;;
3054;SDS011;1537;52.018;8.542;2023-05-07T00:56:14;20.10;;;17.80;;
3054;SDS011;1537;52.018;8.542;2023-05-07T00:59:39;26.50;;;19.87;;
3054;SDS011;1537;52.018;8.542;2023-05-07T01:03:04;24.40;;;20.40;;
3054;SDS011;1537;52.018;8.542;2023-05-07T01:06:30;23.70;;;19.20;;
3054;SDS011;1537;52.018;8.542;2023-05-07T01:10:05;23.57;;;19.53;;
3054;SDS011;1537;52.018;8.542;2023-05-07T01:13:31;24.50;;;18.03;;
3054;SDS011;1537;52.018;8.542;2023-05-07T01:16:56;23.53;;;18.50;;
3054;SDS011;1537;52.018;8.542;2023-05-07T01:20:22;24.57;;;19.23;;
3054;SDS011;1537;52.018;8.542;2023-05-07T01:23:49;24.50;;;18.17;;
3054;SDS011;1537;52.018;8.542;2023-05-07T01:27:14;25.83;;;18.53;;
3054;SDS011;1537;52.018;8.542;2023-05-07T01:30:38;22.93;;;18.70;;
3054;SDS011;1537;52.018;8.542;2023-05-07T01:34:07;24.50;;;20.07;;
3054;SDS011;1537;52.018;8.542;2023-05-07T01:37:33;32.97;;;19.70;;
3054;SDS011;1537;52.018;8.542;2023-05-07T01:40:59;26.03;;;19.67;;
3054;SDS011;1537;52.018;8.542;2023-05-07T01:44:24;24.33;;;18.63;;
3054;SDS011;1537;52.018;8.542;2023-05-07T01:47:49;24.93;;;19.37;;
3054;SDS011;1537;52.018;8.542;2023-05-07T01:51:14;27.03;;;19.40;;
3054;SDS011;1537;52.018;8.542;2023-05-07T01:54:38;22.80;;;17.47;;
3054;SDS011;1537;52.018;8.542;2023-05-07T01:58:04;24.10;;;18.00;;
3054;SDS011;1537;52.018;8.542;2023-05-07T02:01:29;25.40;;;19.40;;
3054;SDS011;1537;52.018;8.542;2023-05-07T02:04:57;29.63;;;19.30;;
3054;SDS011;1537;52.018;8.542;2023-05-07T02:08:21;23.63;;;19.87;;
3054;SDS011;1537;52.018;8.542;2023-05-07T02:11:45;25.50;;;18.57;;
3054;SDS011;1537;52.018;8.542;2023-05-07T02:15:11;28.00;;;19.60;;
3054;SDS011;1537;52.018;8.542;2023-05-07T02:18:34;27.03;;;20.40;;
3054;SDS011;1537;52.018;8.542;2023-05-07T02:21:59;26.10;;;18.97;;
3054;SDS011;1537;52.018;8.542;2023-05-07T02:25:25;22.50;;;17.80;;
3054;SDS011;1537;52.018;8.542;2023-05-07T02:28:49;28.03;;;18.97;;
3054;SDS011;1537;52.018;8.542;2023-05-07T02:32:15;25.17;;;20.03;;
3054;SDS011;1537;52.018;8.542;2023-05-07T02:35:39;26.27;;;20.50;;
3054;SDS011;1537;52.018;8.542;2023-05-07T02:39:04;25.37;;;19.10;;
3054;SDS011;1537;52.018;8.542;2023-05-07T02:42:28;25.77;;;20.13;;
3054;SDS011;1537;52.018;8.542;2023-05-07T02:45:59;26.90;;;20.50;;
3054;SDS011;1537;52.018;8.542;2023-05-07T02:49:25;23.60;;;17.43;;
3054;SDS011;1537;52.018;8.542;2023-05-07T02:52:49;26.23;;;19.20;;
3054;SDS011;1537;52.018;8.542;2023-05-07T02:56:13;27.00;;;20.10;;
3054;SDS011;1537;52.018;8.542;2023-05-07T02:59:37;25.63;;;19.90;;
3054;SDS011;1537;52.018;8.542;2023-05-07T03:03:01;27.07;;;20.43;;
3054;SDS011;1537;52.018;8.542;2023-05-07T03:06:27;25.63;;;20.50;;
3054;SDS011;1537;52.018;8.542;2023-05-07T03:09:53;26.50;;;20.43;;
3054;SDS011;1537;52.018;8.542;2023-05-07T03:13:17;26.23;;;19.53;;
3054;SDS011;1537;52.018;8.542;2023-05-07T03:16:43;29.33;;;20.20;;
3054;SDS011;1537;52.018;8.542;2023-05-07T03:20:08;26.40;;;18.53;;
3054;SDS011;1537;52.018;8.542;2023-05-07T03:23:35;24.80;;;19.40;;
3054;SDS011;1537;52.018;8.542;2023-05-07T03:26:59;26.67;;;20.77;;
3054;SDS011;1537;52.018;8.542;2023-05-07T03:30:24;28.00;;;21.40;;
3054;SDS011;1537;52.018;8.542;2023-05-07T03:33:51;26.10;;;19.60;;
3054;SDS011;1537;52.018;8.542;2023-05-07T03:37:15;26.80;;;20.97;;
3054;SDS011;1537;52.018;8.542;2023-05-07T03:40:41;27.93;;;19.90;;
3054;SDS011;1537;52.018;8.542;2023-05-07T03:44:04;27.47;;;21.10;;
3054;SDS011;1537;52.018;8.542;2023-05-07T03:47:28;30.03;;;20.77;;
3054;SDS011;1537;52.018;8.542;2023-05-07T03:50:53;28.33;;;21.30;;
3054;SDS011;1537;52.018;8.542;2023-05-07T03:54:17;27.60;;;18.80;;
3054;SDS011;1537;52.018;8.542;2023-05-07T03:57:44;28.10;;;21.90;;
3054;SDS011;1537;52.018;8.542;2023-05-07T04:01:08;27.80;;;19.80;;
3054;SDS011;1537;52.018;8.542;2023-05-07T04:04:32;25.47;;;19.87;;
3054;SDS011;1537;52.018;8.542;2023-05-07T04:07:57;28.23;;;20.80;;
3054;SDS011;1537;52.018;8.542;2023-05-07T04:11:28;26.53;;;20.60;;
3054;SDS011;1537;52.018;8.542;2023-05-07T04:14:56;27.43;;;20.40;;
3054;SDS011;1537;52.018;8.542;2023-05-07T04:18:20;24.77;;;19.63;;
3054;SDS011;1537;52.018;8.542;2023-05-07T04:21:45;29.57;;;21.00;;
3054;SDS011;1537;52.018;8.542;2023-05-07T04:25:09;29.93;;;21.73;;
3054;SDS011;1537;52.018;8.542;2023-05-07T04:28:34;31.03;;;21.83;;
3054;SDS011;1537;52.018;8.542;2023-05-07T04:32:00;27.10;;;20.30;;
3054;SDS011;1537;52.018;8.542;2023-05-07T04:35:24;30.07;;;19.90;;
3054;SDS011;1537;52.018;8.542;2023-05-07T04:38:48;26.17;;;20.50;;
3054;SDS011;1537;52.018;8.542;2023-05-07T04:42:14;27.00;;;20.77;;
3054;SDS011;1537;52.018;8.542;2023-05-07T04:45:39;26.37;;;18.83;;
3054;SDS011;1537;52.018;8.542;2023-05-07T04:49:05;25.37;;;19.07;;
3054;SDS011;1537;52.018;8.542;2023-05-07T04:52:31;28.97;;;20.00;;
3054;SDS011;1537;52.018;8.542;2023-05-07T04:55:55;29.80;;;21.17;;
3054;SDS011;1537;52.018;8.542;2023-05-07T04:59:30;26.43;;;21.23;;
3054;SDS011;1537;52.018;8.542;2023-05-07T05:02:55;27.77;;;22.27;;
3054;SDS011;1537;52.018;8.542;2023-05-07T05:06:21;31.87;;;23.07;;
3054;SDS011;1537;52.018;8.542;2023-05-07T05:09:45;29.00;;;21.07;;
3054;SDS011;1537;52.018;8.542;2023-05-07T05:13:09;26.10;;;20.97;;
3054;SDS011;1537;52.018;8.542;2023-05-07T05:16:36;25.60;;;18.67;;
3054;SDS011;1537;52.018;8.542;2023-05-07T05:20:00;27.10;;;20.33;;
3054;SDS011;1537;52.018;8.542;2023-05-07T05:23:29;29.10;;;20.47;;
3054;SDS011;1537;52.018;8.542;2023-05-07T05:26:53;27.23;;;21.47;;
3054;SDS011;1537;52.018;8.542;2023-05-07T05:30:18;26.87;;;18.57;;
3054;SDS011;1537;52.018;8.542;2023-05-07T05:33:44;29.80;;;21.83;;
3054;SDS011;1537;52.018;8.542;2023-05-07T05:37:08;26.53;;;19.90;;
3054;SDS011;1537;52.018;8.542;2023-05-07T05:40:35;26.07;;;18.47;;
3054;SDS011;1537;52.018;8.542;2023-05-07T05:43:59;27.73;;;20.60;;
3054;SDS011;1537;52.018;8.542;2023-05-07T05:47:23;28.03;;;20.43;;
3054;SDS011;1537;52.018;8.542;2023-05-07T05:50:50;24.57;;;19.63;;
3054;SDS011;1537;52.018;8.542;2023-05-07T05:54:14;24.00;;;18.90;;
3054;SDS011;1537;52.018;8.542;2023-05-07T05:57:40;27.70;;;21.17;;
3054;SDS011;1537;52.018;8.542;2023-05-07T06:01:04;24.63;;;18.07;;
3054;SDS011;1537;52.018;8.542;2023-05-07T06:04:31;27.60;;;20.83;;
3054;SDS011;1537;52.018;8.542;2023-05-07T06:07:58;23.57;;;18.50;;
3054;SDS011;1537;52.018;8.542;2023-05-07T06:11:26;26.03;;;18.30;;
3054;SDS011;1537;52.018;8.542;2023-05-07T06:14:54;21.90;;;17.93;;
3054;SDS011;1537;52.018;8.542;2023-05-07T06:18:21;22.00;;;17.70;;
3054;SDS011;1537;52.018;8.542;2023-05-07T06:21:45;21.77;;;16.70;;
3054;SDS011;1537;52.018;8.542;2023-05-07T06:25:09;22.73;;;17.30;;
3054;SDS011;1537;52.018;8.542;2023-05-07T06:28:34;22.23;;;17.23;;
3054;SDS011;1537;52.018;8.542;2023-05-07T06:32:07;23.33;;;17.97;;
3054;SDS011;1537;52.018;8.542;2023-05-07T06:35:33;24.00;;;16.10;;
3054;SDS011;1537;52.018;8.542;2023-05-07T06:38:57;18.93;;;13.20;;
3054;SDS011;1537;52.018;8.542;2023-05-07T06:42:21;19.97;;;14.37;;
3054;SDS011;1537;52.018;8.542;2023-05-07T06:45:52;20.60;;;15.23;;
3054;SDS011;1537;52.018;8.542;2023-05-07T06:49:18;21.83;;;16.07;;
3054;SDS011;1537;52.018;8.542;2023-05-07T06:52:43;19.97;;;16.10;;
3054;SDS011;1537;52.018;8.542;2023-05-07T06:56:07;19.40;;;14.13;;
3054;SDS011;1537;52.018;8.542;2023-05-07T06:59:32;23.20;;;15.23;;
3054;SDS011;1537;52.018;8.542;2023-05-07T07:02:59;21.80;;;18.70;;
3054;SDS011;1537;52.018;8.542;2023-05-07T07:06:26;20.30;;;16.70;;
3054;SDS011;1537;52.018;8.542;2023-05-07T07:09:50;16.73;;;14.03;;
3054;SDS011;1537;52.018;8.542;2023-05-07T07:13:14;22.67;;;15.63;;
3054;SDS011;1537;52.018;8.542;2023-05-07T07:16:39;18.30;;;15.20;;
3054;SDS011;1537;52.018;8.542;2023-05-07T07:20:03;20.43;;;15.33;;
3054;SDS011;1537;52.018;8.542;2023-05-07T07:23:29;18.23;;;14.10;;
3054;SDS011;1537;52.018;8.542;2023-05-07T07:26:53;19.43;;;14.40;;
3054;SDS011;1537;52.018;8.542;2023-05-07T07:30:19;19.57;;;15.07;;
3054;SDS011;1537;52.018;8.542;2023-05-07T07:33:44;17.40;;;13.37;;
3054;SDS011;1537;52.018;8.542;2023-05-07T07:37:08;17.50;;;13.60;;
3054;SDS011;1537;52.018;8.542;2023-05-07T07:40:35;18.60;;;14.37;;
3054;SDS011;1537;52.018;8.542;2023-05-07T07:44:02;19.60;;;13.00;;
3054;SDS011;1537;52.018;8.542;2023-05-07T07:47:31;17.97;;;12.37;;
3054;SDS011;1537;52.018;8.542;2023-05-07T07:50:55;14.20;;;12.60;;
3054;SDS011;1537;52.018;8.542;2023-05-07T07:54:19;18.97;;;14.60;;
3054;SDS011;1537;52.018;8.542;2023-05-07T07:57:45;15.50;;;12.47;;
3054;SDS011;1537;52.018;8.542;2023-05-07T08:01:09;16.20;;;12.07;;
3054;SDS011;1537;52.018;8.542;2023-05-07T08:04:37;18.47;;;13.20;;
3054;SDS011;1537;52.018;8.542;2023-05-07T08:08:05;16.07;;;11.73;;
3054;SDS011;1537;52.018;8.542;2023-05-07T08:11:38;13.60;;;10.60;;
3054;SDS011;1537;52.018;8.542;2023-05-07T08:15:09;13.27;;;11.10;;
3054;SDS011;1537;52.018;8.542;2023-05-07T08:18:34;15.63;;;12.40;;
3054;SDS011;1537;52.018;8.542;2023-05-07T08:21:58;16.13;;;12.00;;
3054;SDS011;1537;52.018;8.542;2023-05-07T08:25:24;15.40;;;11.40;;
3054;SDS011;1537;52.018;8.542;2023-05-07T08:28:49;12.60;;;10.53;;
3054;SDS011;1537;52.018;8.542;2023-05-07T08:32:16;14.40;;;9.90;;
3054;SDS011;1537;52.018;8.542;2023-05-07T08:35:41;11.63;;;10.03;;
3054;SDS011;1537;52.018;8.542;2023-05-07T08:39:07;16.73;;;12.20;;
3054;SDS011;1537;52.018;8.542;2023-05-07T08:42:32;11.60;;;10.40;;
3054;SDS011;1537;52.018;8.542;2023-05-07T08:46:00;12.70;;;10.43;;
3054;SDS011;1537;52.018;8.542;2023-05-07T08:49:30;13.43;;;10.83;;
3054;SDS011;1537;52.018;8.542;2023-05-07T08:52:54;13.80;;;9.60;;
3054;SDS011;1537;52.018;8.542;2023-05-07T08:56:19;13.40;;;9.87;;
3054;SDS011;1537;52.018;8.542;2023-05-07T08:59:45;11.57;;;9.60;;
3054;SDS011;1537;52.018;8.542;2023-05-07T09:03:09;12.67;;;9.07;;
3054;SDS011;1537;52.018;8.542;2023-05-07T09:06:37;12.90;;;9.90;;
3054;SDS011;1537;52.018;8.542;2023-05-07T09:10:06;12.73;;;9.60;;
3054;SDS011;1537;52.018;8.542;2023-05-07T09:13:33;11.83;;;9.03;;
3054;SDS011;1537;52.018;8.542;2023-05-07T09:16:57;11.07;;;9.50;;
3054;SDS011;1537;52.018;8.542;2023-05-07T09:20:23;12.17;;;9.57;;
3054;SDS011;1537;52.018;8.542;2023-05-07T09:23:50;13.57;;;11.67;;
3054;SDS011;1537;52.018;8.542;2023-05-07T09:27:17;12.70;;;9.60;;
3054;SDS011;1537;52.018;8.542;2023-05-07T09:30:41;13.10;;;10.07;;
3054;SDS011;1537;52.018;8.542;2023-05-07T09:34:07;11.63;;;8.30;;
3054;SDS011;1537;52.018;8.542;2023-05-07T09:37:35;12.67;;;10.50;;
3054;SDS011;1537;52.018;8.542;2023-05-07T09:41:04;13.70;;;9.90;;
3054;SDS011;1537;52.018;8.542;2023-05-07T09:44:34;15.63;;;11.20;;
3054;SDS011;1537;52.018;8.542;2023-05-07T09:48:02;13.97;;;11.73;;
3054;SDS011;1537;52.018;8.542;2023-05-07T09:51:29;12.70;;;10.37;;
3054;SDS011;1537;52.018;8.542;2023-05-07T09:54:58;12.30;;;10.03;;
3054;SDS011;1537;52.018;8.542;2023-05-07T09:58:27;12.70;;;10.10;;
3054;SDS011;1537;52.018;8.542;2023-05-07T10:01:54;12.13;;;9.90;;
3054;SDS011;1537;52.018;8.542;2023-05-07T10:05:22;11.30;;;9.17;;
3054;SDS011;1537;52.018;8.542;2023-05-07T10:08:49;13.33;;;11.20;;
3054;SDS011;1537;52.018;8.542;2023-05-07T10:12:15;13.37;;;9.80;;
3054;SDS011;1537;52.018;8.542;2023-05-07T10:15:41;11.23;;;9.70;;
3054;SDS011;1537;52.018;8.542;2023-05-07T10:19:07;10.67;;;9.57;;
3054;SDS011;1537;52.018;8.542;2023-05-07T10:22:37;12.77;;;9.50;;
3054;SDS011;1537;52.018;8.542;2023-05-07T10:26:06;13.47;;;9.60;;
3054;SDS011;1537;52.018;8.542;2023-05-07T10:29:33;10.70;;;8.63;;
3054;SDS011;1537;52.018;8.542;2023-05-07T10:33:04;12.13;;;7.87;;
3054;SDS011;1537;52.018;8.542;2023-05-07T10:36:33;10.47;;;9.13;;
3054;SDS011;1537;52.018;8.542;2023-05-07T10:40:00;12.17;;;9.33;;
3054;SDS011;1537;52.018;8.542;2023-05-07T10:43:26;14.40;;;10.03;;
3054;SDS011;1537;52.018;8.542;2023-05-07T10:47:06;11.27;;;8.83;;
3054;SDS011;1537;52.018;8.542;2023-05-07T10:50:35;13.03;;;7.97;;
3054;SDS011;1537;52.018;8.542;2023-05-07T10:54:19;11.87;;;8.20;;
3054;SDS011;1537;52.018;8.542;2023-05-07T10:57:53;10.40;;;7.97;;
3054;SDS011;1537;52.018;8.542;2023-05-07T11:05:19;10.00;;;6.60;;
3054;SDS011;1537;52.018;8.542;2023-05-07T11:08:54;9.77;;;8.60;;
3054;SDS011;1537;52.018;8.542;2023-05-07T11:12:52;10.83;;;8.20;;
3054;SDS011;1537;52.018;8.542;2023-05-07T11:16:26;12.03;;;7.10;;
3054;SDS011;1537;52.018;8.542;2023-05-07T11:20:00;9.50;;;6.47;;
3054;SDS011;1537;52.018;8.542;2023-05-07T11:27:47;9.47;;;7.00;;
3054;SDS011;1537;52.018;8.542;2023-05-07T11:31:11;10.20;;;7.90;;
3054;SDS011;1537;52.018;8.542;2023-05-07T11:34:35;8.80;;;6.73;;
3054;SDS011;1537;52.018;8.542;2023-05-07T11:37:59;8.70;;;6.97;;
3054;SDS011;1537;52.018;8.542;2023-05-07T11:41:34;9.57;;;6.30;;
3054;SDS011;1537;52.018;8.542;2023-05-07T11:44:59;9.30;;;7.27;;
3054;SDS011;1537;52.018;8.542;2023-05-07T11:48:23;11.70;;;7.30;;
3054;SDS011;1537;52.018;8.542;2023-05-07T11:51:47;9.63;;;5.83;;
3054;SDS011;1537;52.018;8.542;2023-05-07T11:55:10;7.80;;;6.50;;
3054;SDS011;1537;52.018;8.542;2023-05-07T11:58:36;8.63;;;6.50;;
3054;SDS011;1537;52.018;8.542;2023-05-07T12:02:00;9.67;;;7.00;;
3054;SDS011;1537;52.018;8.542;2023-05-07T12:05:25;8.67;;;6.80;;
3054;SDS011;1537;52.018;8.542;2023-05-07T12:08:48;7.67;;;5.97;;
3054;SDS011;1537;52.018;8.542;2023-05-07T12:12:12;9.43;;;7.33;;
3054;SDS011;1537;52.018;8.542;2023-05-07T12:15:38;7.90;;;5.70;;
3054;SDS011;1537;52.018;8.542;2023-05-07T12:19:02;9.37;;;7.27;;
3054;SDS011;1537;52.018;8.542;2023-05-07T12:22:26;10.77;;;7.80;;
3054;SDS011;1537;52.018;8.542;2023-05-07T12:25:50;9.63;;;6.57;;
3054;SDS011;1537;52.018;8.542;2023-05-07T12:29:13;8.50;;;6.83;;
3054;SDS011;1537;52.018;8.542;2023-05-07T12:32:38;11.33;;;6.00;;
3054;SDS011;1537;52.018;8.542;2023-05-07T12:36:04;16.10;;;6.87;;
3054;SDS011;1537;52.018;8.542;2023-05-07T12:39:30;9.53;;;7.37;;
3054;SDS011;1537;52.018;8.542;2023-05-07T12:42:58;9.67;;;6.20;;
3054;SDS011;1537;52.018;8.542;2023-05-07T12:46:24;9.67;;;6.50;;
3054;SDS011;1537;52.018;8.542;2023-05-07T12:49:52;8.37;;;5.73;;
3054;SDS011;1537;52.018;8.542;2023-05-07T12:53:22;8.60;;;5.63;;
3054;SDS011;1537;52.018;8.542;2023-05-07T12:56:59;11.33;;;6.67;;
3054;SDS011;1537;52.018;8.542;2023-05-07T13:00:35;9.63;;;5.33;;
3054;SDS011;1537;52.018;8.542;2023-05-07T13:04:04;7.33;;;5.43;;
3054;SDS011;1537;52.018;8.542;2023-05-07T13:07:36;8.40;;;5.40;;
3054;SDS011;1537;52.018;8.542;2023-05-07T13:11:01;7.90;;;5.77;;
3054;SDS011;1537;52.018;8.542;2023-05-07T13:14:27;10.30;;;6.90;;
3054;SDS011;1537;52.018;8.542;2023-05-07T13:17:59;9.00;;;6.80;;
3054;SDS011;1537;52.018;8.542;2023-05-07T13:21:32;8.80;;;6.43;;
3054;SDS011;1537;52.018;8.542;2023-05-07T13:25:01;7.47;;;6.50;;
3054;SDS011;1537;52.018;8.542;2023-05-07T13:28:27;8.20;;;4.53;;
3054;SDS011;1537;52.018;8.542;2023-05-07T13:31:53;9.00;;;5.50;;
3054;SDS011;1537;52.018;8.542;2023-05-07T13:35:21;8.60;;;5.77;;
3054;SDS011;1537;52.018;8.542;2023-05-07T13:38:50;8.47;;;6.67;;
3054;SDS011;1537;52.018;8.542;2023-05-07T13:42:18;9.80;;;5.80;;
3054;SDS011;1537;52.018;8.542;2023-05-07T13:45:49;9.20;;;5.90;;
3054;SDS011;1537;52.018;8.542;2023-05-07T13:49:15;15.90;;;6.30;;
3054;SDS011;1537;52.018;8.542;2023-05-07T13:52:40;9.67;;;6.33;;
3054;SDS011;1537;52.018;8.542;2023-05-07T13:56:07;8.27;;;5.00;;
3054;SDS011;1537;52.018;8.542;2023-05-07T13:59:32;8.90;;;6.13;;
3054;SDS011;1537;52.018;8.542;2023-05-07T14:02:56;9.00;;;5.70;;
3054;SDS011;1537;52.018;8.542;2023-05-07T14:06:20;9.77;;;6.43;;
3054;SDS011;1537;52.018;8.542;2023-05-07T14:09:45;9.33;;;7.10;;
3054;SDS011;1537;52.018;8.542;2023-05-07T14:13:09;8.37;;;5.40;;
3054;SDS011;1537;52.018;8.542;2023-05-07T14:16:40;9.33;;;6.97;;
3054;SDS011;1537;52.018;8.542;2023-05-07T14:20:09;9.83;;;7.27;;
3054;SDS011;1537;52.018;8.542;2023-05-07T14:23:34;12.70;;;8.23;;
3054;SDS011;1537;52.018;8.542;2023-05-07T14:26:57;9.80;;;7.57;;
3054;SDS011;1537;52.018;8.542;2023-05-07T14:30:21;9.97;;;6.90;;
3054;SDS011;1537;52.018;8.542;2023-05-07T14:33:47;10.03;;;6.57;;
3054;SDS011;1537;52.018;8.542;2023-05-07T14:37:12;9.83;;;7.20;;
3054;SDS011;1537;52.018;8.542;2023-05-07T14:40:36;10.17;;;7.70;;
3054;SDS011;1537;52.018;8.542;2023-05-07T14:44:02;11.27;;;8.60;;
3054;SDS011;1537;52.018;8.542;2023-05-07T14:47:26;10.77;;;7.60;;
3054;SDS011;1537;52.018;8.542;2023-05-07T14:50:51;10.23;;;7.70;;
3054;SDS011;1537;52.018;8.542;2023-05-07T14:54:19;10.10;;;7.50;;
3054;SDS011;1537;52.018;8.542;2023-05-07T14:57:43;9.83;;;8.27;;
3054;SDS011;1537;52.018;8.542;2023-05-07T15:01:07;10.80;;;9.50;;
3054;SDS011;1537;52.018;8.542;2023-05-07T15:04:31;11.20;;;9.20;;
3054;SDS011;1537;52.018;8.542;2023-05-07T15:07:56;11.80;;;8.03;;
3054;SDS011;1537;52.018;8.542;2023-05-07T15:11:19;9.60;;;7.20;;
3054;SDS011;1537;52.018;8.542;2023-05-07T15:14:43;11.87;;;8.37;;
3054;SDS011;1537;52.018;8.542;2023-05-07T15:18:08;10.40;;;8.47;;
3054;SDS011;1537;52.018;8.542;2023-05-07T15:21:31;12.23;;;7.90;;
3054;SDS011;1537;52.018;8.542;2023-05-07T15:24:58;11.33;;;8.60;;
3054;SDS011;1537;52.018;8.542;2023-05-07T15:28:21;10.80;;;7.63;;
3054;SDS011;1537;52.018;8.542;2023-05-07T15:31:48;11.87;;;8.73;;
3054;SDS011;1537;52.018;8.542;2023-05-07T15:35:12;12.87;;;7.90;;
3054;SDS011;1537;52.018;8.542;2023-05-07T15:38:36;10.53;;;8.23;;
3054;SDS011;1537;52.018;8.542;2023-05-07T15:42:01;13.10;;;9.50;;
3054;SDS011;1537;52.018;8.542;2023-05-07T15:45:25;11.13;;;8.70;;
3054;SDS011;1537;52.018;8.542;2023-05-07T15:48:49;11.00;;;8.53;;
3054;SDS011;1537;52.018;8.542;2023-05-07T15:52:13;12.03;;;8.07;;
3054;SDS011;1537;52.018;8.542;2023-05-07T15:55:38;12.37;;;8.87;;
3054;SDS011;1537;52.018;8.542;2023-05-07T15:59:05;11.83;;;9.53;;
3054;SDS011;1537;52.018;8.542;2023-05-07T16:02:28;11.50;;;8.53;;
3054;SDS011;1537;52.018;8.542;2023-05-07T16:05:52;11.27;;;9.27;;
3054;SDS011;1537;52.018;8.542;2023-05-07T16:09:18;10.20;;;9.00;;
3054;SDS011;1537;52.018;8.542;2023-05-07T16:12:42;11.00;;;8.07;;
3054;SDS011;1537;52.018;8.542;2023-05-07T16:16:07;11.97;;;8.50;;
3054;SDS011;1537;52.018;8.542;2023-05-07T16:19:31;9.27;;;7.17;;
3054;SDS011;1537;52.018;8.542;2023-05-07T16:22:55;10.97;;;8.13;;
3054;SDS011;1537;52.018;8.542;2023-05-07T16:26:18;10.87;;;8.43;;
3054;SDS011;1537;52.018;8.542;2023-05-07T16:29:42;9.57;;;7.17;;
3054;SDS011;1537;52.018;8.542;2023-05-07T16:33:07;11.80;;;7.17;;
3054;SDS011;1537;52.018;8.542;2023-05-07T16:36:31;10.80;;;8.40;;
3054;SDS011;1537;52.018;8.542;2023-05-07T16:39:55;13.97;;;8.60;;
3054;SDS011;1537;52.018;8.542;2023-05-07T16:43:20;11.37;;;8.30;;
3054;SDS011;1537;52.018;8.542;2023-05-07T16:46:44;11.30;;;9.13;;
3054;SDS011;1537;52.018;8.542;2023-05-07T16:50:09;10.40;;;8.03;;
3054;SDS011;1537;52.018;8.542;2023-05-07T16:53:33;9.63;;;7.83;;
3054;SDS011;1537;52.018;8.542;2023-05-07T16:56:57;10.60;;;8.27;;
3054;SDS011;1537;52.018;8.542;2023-05-07T17:00:21;11.80;;;8.40;;
3054;SDS011;1537;52.018;8.542;2023-05-07T17:03:46;10.63;;;7.40;;
3054;SDS011;1537;52.018;8.542;2023-05-07T17:07:11;9.57;;;7.40;;
3054;SDS011;1537;52.018;8.542;2023-05-07T17:10:35;11.80;;;8.10;;
3054;SDS011;1537;52.018;8.542;2023-05-07T17:13:59;9.17;;;6.70;;
3054;SDS011;1537;52.018;8.542;2023-05-07T17:17:26;8.30;;;7.23;;
3054;SDS011;1537;52.018;8.542;2023-05-07T17:20:50;9.77;;;8.10;;
3054;SDS011;1537;52.018;8.542;2023-05-07T17:24:15;10.10;;;8.90;;
3054;SDS011;1537;52.018;8.542;2023-05-07T17:27:39;9.97;;;7.23;;
3054;SDS011;1537;52.018;8.542;2023-05-07T17:31:03;9.90;;;8.13;;
3054;SDS011;1537;52.018;8.542;2023-05-07T17:34:27;10.97;;;8.53;;
3054;SDS011;1537;52.018;8.542;2023-05-07T17:37:55;12.60;;;8.17;;
3054;SDS011;1537;52.018;8.542;2023-05-07T17:41:20;8.57;;;7.67;;
3054;SDS011;1537;52.018;8.542;2023-05-07T17:44:44;9.30;;;8.13;;
3054;SDS011;1537;52.018;8.542;2023-05-07T17:48:08;9.70;;;8.70;;
3054;SDS011;1537;52.018;8.542;2023-05-07T17:51:32;10.07;;;9.07;;
3054;SDS011;1537;52.018;8.542;2023-05-07T17:55:14;10.60;;;8.63;;
3054;SDS011;1537;52.018;8.542;2023-05-07T17:58:39;11.10;;;10.00;;
3054;SDS011;1537;52.018;8.542;2023-05-07T18:02:08;12.83;;;10.50;;
3054;SDS011;1537;52.018;8.542;2023-05-07T18:05:34;11.60;;;10.40;;
3054;SDS011;1537;52.018;8.542;2023-05-07T18:08:58;13.47;;;10.17;;
3054;SDS011;1537;52.018;8.542;2023-05-07T18:12:21;13.27;;;11.27;;
3054;SDS011;1537;52.018;8.542;2023-05-07T18:15:50;14.87;;;11.30;;
3054;SDS011;1537;52.018;8.542;2023-05-07T18:19:17;14.33;;;12.43;;
3054;SDS011;1537;52.018;8.542;2023-05-07T18:22:40;16.37;;;11.17;;
3054;SDS011;1537;52.018;8.542;2023-05-07T18:26:04;15.50;;;12.87;;
3054;SDS011;1537;52.018;8.542;2023-05-07T18:29:29;13.63;;;11.80;;
3054;SDS011;1537;52.018;8.542;2023-05-07T18:32:54;12.80;;;10.87;;
3054;SDS011;1537;52.018;8.542;2023-05-07T18:36:18;14.47;;;12.70;;
3054;SDS011;1537;52.018;8.542;2023-05-07T18:39:41;13.90;;;11.40;;
3054;SDS011;1537;52.018;8.542;2023-05-07T18:43:06;14.40;;;12.60;;
3054;SDS011;1537;52.018;8.542;2023-05-07T18:46:30;15.07;;;12.47;;
3054;SDS011;1537;52.018;8.542;2023-05-07T18:49:55;15.93;;;13.73;;
3054;SDS011;1537;52.018;8.542;2023-05-07T18:53:20;15.40;;;12.87;;
3054;SDS011;1537;52.018;8.542;2023-05-07T18:56:44;15.60;;;12.90;;
3054;SDS011;1537;52.018;8.542;2023-05-07T19:00:08;15.57;;;12.90;;
3054;SDS011;1537;52.018;8.542;2023-05-07T19:03:32;15.73;;;12.50;;
3054;SDS011;1537;52.018;8.542;2023-05-07T19:06:57;15.03;;;12.37;;
3054;SDS011;1537;52.018;8.542;2023-05-07T19:10:25;15.07;;;12.97;;
3054;SDS011;1537;52.018;8.542;2023-05-07T19:13:48;16.10;;;13.23;;
3054;SDS011;1537;52.018;8.542;2023-05-07T19:17:13;15.33;;;13.70;;
3054;SDS011;1537;52.018;8.542;2023-05-07T19:20:37;14.10;;;12.00;;
3054;SDS011;1537;52.018;8.542;2023-05-07T19:24:03;16.10;;;14.40;;
3054;SDS011;1537;52.018;8.542;2023-05-07T19:27:27;17.57;;;14.23;;
3054;SDS011;1537;52.018;8.542;2023-05-07T19:30:50;16.10;;;14.23;;
3054;SDS011;1537;52.018;8.542;2023-05-07T19:34:15;17.80;;;13.13;;
3054;SDS011;1537;52.018;8.542;2023-05-07T19:37:39;20.07;;;14.87;;
3054;SDS011;1537;52.018;8.542;2023-05-07T19:41:04;18.77;;;14.23;;
3054;SDS011;1537;52.018;8.542;2023-05-07T19:44:28;15.83;;;13.90;;
3054;SDS011;1537;52.018;8.542;2023-05-07T19:47:51;16.60;;;14.10;;
3054;SDS011;1537;52.018;8.542;2023-05-07T19:51:15;16.33;;;13.93;;
3054;SDS011;1537;52.018;8.542;2023-05-07T19:54:38;19.23;;;15.03;;
3054;SDS011;1537;52.018;8.542;2023-05-07T19:58:03;16.37;;;13.50;;
3054;SDS011;1537;52.018;8.542;2023-05-07T20:01:27;18.17;;;16.27;;
3054;SDS011;1537;52.018;8.542;2023-05-07T20:04:53;17.63;;;14.87;;
3054;SDS011;1537;52.018;8.542;2023-05-07T20:08:17;17.93;;;15.00;;
3054;SDS011;1537;52.018;8.542;2023-05-07T20:11:41;19.20;;;15.47;;
3054;SDS011;1537;52.018;8.542;2023-05-07T20:15:06;23.20;;;14.90;;
3054;SDS011;1537;52.018;8.542;2023-05-07T20:18:31;17.40;;;14.23;;
3054;SDS011;1537;52.018;8.542;2023-05-07T20:21:55;17.70;;;14.83;;
3054;SDS011;1537;52.018;8.542;2023-05-07T20:25:18;19.37;;;16.17;;
3054;SDS011;1537;52.018;8.542;2023-05-07T20:28:42;17.70;;;15.57;;
3054;SDS011;1537;52.018;8.542;2023-05-07T20:32:07;17.67;;;15.20;;
3054;SDS011;1537;52.018;8.542;2023-05-07T20:35:31;18.47;;;15.50;;
3054;SDS011;1537;52.018;8.542;2023-05-07T20:38:54;17.70;;;14.73;;
3054;SDS011;1537;52.018;8.542;2023-05-07T20:42:18;19.43;;;16.50;;
3054;SDS011;1537;52.018;8.542;2023-05-07T20:45:42;17.33;;;14.60;;
3054;SDS011;1537;52.018;8.542;2023-05-07T20:49:06;17.60;;;14.70;;
3054;SDS011;1537;52.018;8.542;2023-05-07T20:52:30;17.07;;;14.97;;
3054;SDS011;1537;52.018;8.542;2023-05-07T20:55:54;17.37;;;15.27;;
3054;SDS011;1537;52.018;8.542;2023-05-07T20:59:18;18.77;;;14.60;;